createdAt,value
2019-06-10T00:01:04.232Z,9.70
2019-06-10T00:04:09.569Z,9.80
2019-06-10T00:07:13.391Z,10.00
2019-06-10T00:10:18.078Z,10.43
2019-06-10T00:13:22.523Z,9.97
2019-06-10T00:16:26.891Z,10.37
2019-06-10T00:19:31.752Z,10.43
2019-06-10T00:22:36.226Z,10.13
2019-06-10T00:25:41.861Z,10.37
2019-06-10T00:28:46.340Z,10.47
2019-06-10T00:31:50.992Z,9.93
2019-06-10T00:34:55.528Z,10.67
2019-06-10T00:38:02.490Z,10.23
2019-06-10T00:41:07.629Z,10.57
2019-06-10T00:44:12.803Z,10.77
2019-06-10T00:47:17.259Z,10.40
2019-06-10T00:50:21.758Z,10.83
2019-06-10T00:53:26.080Z,11.27
2019-06-10T00:56:30.809Z,10.87
2019-06-10T00:59:35.248Z,10.33
2019-06-10T01:02:41.067Z,11.10
2019-06-10T01:05:45.598Z,10.90
2019-06-10T01:08:51.278Z,10.97
2019-06-10T01:11:55.699Z,10.50
2019-06-10T01:15:00.869Z,11.40
2019-06-10T01:18:05.550Z,10.47
2019-06-10T01:21:12.209Z,10.90
2019-06-10T01:24:17.412Z,11.30
2019-06-10T01:27:21.876Z,11.03
2019-06-10T01:30:27.315Z,11.10
2019-06-10T01:33:31.993Z,11.43
2019-06-10T01:36:36.432Z,10.97
2019-06-10T01:39:41.249Z,11.80
2019-06-10T01:42:45.741Z,11.23
2019-06-10T01:45:51.126Z,11.63
2019-06-10T01:48:55.685Z,12.73
2019-06-10T01:52:01.673Z,12.27
2019-06-10T01:55:11.851Z,12.23
2019-06-10T01:58:16.780Z,11.57
2019-06-10T02:01:27.868Z,12.47
2019-06-10T02:04:32.364Z,12.87
2019-06-10T02:07:36.717Z,12.67
2019-06-10T02:10:41.512Z,12.70
2019-06-10T02:13:46.332Z,12.33
2019-06-10T02:16:50.804Z,13.50
2019-06-10T02:19:55.127Z,12.70
2019-06-10T02:23:01.910Z,13.83
2019-06-10T02:26:05.504Z,13.20
2019-06-10T02:29:11.623Z,14.00
2019-06-10T02:32:22.552Z,13.67
2019-06-10T02:35:32.172Z,13.77
2019-06-10T02:38:34.026Z,13.23
2019-06-10T02:41:36.365Z,15.23
2019-06-10T02:44:39.900Z,13.20
2019-06-10T02:47:44.603Z,13.97
2019-06-10T02:51:15.827Z,15.10
2019-06-10T02:54:22.709Z,15.37
2019-06-10T02:57:32.910Z,15.27
2019-06-10T03:00:42.638Z,15.57
2019-06-10T03:03:44.284Z,15.20
2019-06-10T03:06:45.007Z,15.87
2019-06-10T03:09:49.569Z,14.83
2019-06-10T03:12:53.947Z,15.30
2019-06-10T03:16:04.239Z,14.50
2019-06-10T03:19:08.606Z,14.97
2019-06-10T03:22:13.128Z,15.03
2019-06-10T03:25:18.329Z,16.57
2019-06-10T03:28:24.182Z,14.10
2019-06-10T03:31:40.155Z,14.83
2019-06-10T03:34:41.611Z,14.03
2019-06-10T03:37:42.402Z,14.37
2019-06-10T03:40:46.898Z,14.40
2019-06-10T03:43:53.129Z,14.57
2019-06-10T03:46:57.530Z,15.00
2019-06-10T03:50:03.207Z,14.77
2019-06-10T03:53:07.805Z,14.87
2019-06-10T03:56:12.901Z,14.90
2019-06-10T03:59:17.399Z,15.03
2019-06-10T04:02:23.873Z,13.37
2019-06-10T04:05:28.882Z,14.13
2019-06-10T04:08:33.235Z,15.47
2019-06-10T04:11:37.655Z,14.77
2019-06-10T04:14:42.087Z,13.67
2019-06-10T04:17:46.417Z,14.63
2019-06-10T04:20:52.761Z,14.80
2019-06-10T04:23:56.849Z,15.50
2019-06-10T04:27:02.805Z,15.23
2019-06-10T04:30:07.909Z,16.23
2019-06-10T04:33:12.670Z,15.93
2019-06-10T04:36:18.288Z,16.10
2019-06-10T04:39:25.775Z,17.23
2019-06-10T04:42:29.059Z,17.00
2019-06-10T04:45:33.557Z,16.17
2019-06-10T04:48:37.937Z,17.73
2019-06-10T04:51:43.545Z,17.57
2019-06-10T04:54:47.964Z,18.03
2019-06-10T04:57:52.607Z,17.80
2019-06-10T05:00:56.979Z,17.60
2019-06-10T05:04:03.137Z,17.90
2019-06-10T05:07:07.435Z,18.37
2019-06-10T05:10:12.527Z,18.70
2019-06-10T05:13:16.947Z,19.30
2019-06-10T05:16:25.596Z,18.33
2019-06-10T05:19:29.110Z,18.50
2019-06-10T05:22:33.824Z,18.90
2019-06-10T05:25:38.168Z,18.63
2019-06-10T05:28:44.136Z,19.60
2019-06-10T05:31:48.500Z,18.80
2019-06-10T05:34:53.065Z,18.23
2019-06-10T05:37:57.445Z,18.53
2019-06-10T05:41:03.005Z,18.43
2019-06-10T05:44:07.513Z,19.10
2019-06-10T05:47:12.653Z,19.17
2019-06-10T05:50:17.128Z,18.60
2019-06-10T05:53:23.126Z,17.50
2019-06-10T05:56:27.488Z,18.40
2019-06-10T05:59:34.092Z,17.07
2019-06-10T06:02:37.895Z,18.70
2019-06-10T06:05:43.652Z,17.93
2019-06-10T06:08:47.952Z,18.53
2019-06-10T06:11:52.474Z,18.20
2019-06-10T06:14:59.183Z,17.57
2019-06-10T06:18:09.943Z,16.87
2019-06-10T06:21:22.662Z,18.00
2019-06-10T06:24:16.378Z,17.73
2019-06-10T06:27:22.561Z,18.23
2019-06-10T06:30:28.008Z,17.33
2019-06-10T06:33:36.135Z,18.23
2019-06-10T06:36:38.532Z,19.00
2019-06-10T06:39:43.053Z,17.43
2019-06-10T06:42:47.507Z,17.13
2019-06-10T06:45:53.121Z,16.77
2019-06-10T06:48:57.562Z,17.13
2019-06-10T06:52:02.873Z,17.40
2019-06-10T06:55:09.917Z,17.90
2019-06-10T06:58:14.021Z,16.50
2019-06-10T07:01:18.439Z,16.73
2019-06-10T07:04:23.544Z,17.40
2019-06-10T07:07:30.117Z,17.07
2019-06-10T07:10:38.805Z,16.07
2019-06-10T07:13:45.889Z,16.83
2019-06-10T07:16:52.810Z,16.87
2019-06-10T07:19:57.612Z,17.37
2019-06-10T07:23:02.672Z,16.97
2019-06-10T07:26:07.279Z,15.13
2019-06-10T07:29:13.256Z,16.23
2019-06-10T07:32:17.755Z,16.20
2019-06-10T07:35:22.236Z,15.47
2019-06-10T07:38:27.796Z,16.57
2019-06-10T07:41:32.896Z,16.83
2019-06-10T07:44:39.067Z,16.30
2019-06-10T07:47:44.257Z,16.23
2019-06-10T07:50:49.608Z,16.87
2019-06-10T07:53:53.971Z,16.13
2019-06-10T07:56:58.300Z,16.17
2019-06-10T08:00:03.122Z,16.27
2019-06-10T08:03:07.693Z,16.77
2019-06-10T08:06:14.980Z,16.13
2019-06-10T08:09:19.290Z,16.93
2019-06-10T08:12:24.802Z,15.90
2019-06-10T08:15:29.217Z,15.70
2019-06-10T08:18:44.413Z,16.97
2019-06-10T08:21:41.470Z,15.03
2019-06-10T08:24:45.924Z,15.57
2019-06-10T08:27:52.958Z,14.63
2019-06-10T08:30:56.373Z,14.53
2019-06-10T08:34:02.985Z,14.17
2019-06-10T08:37:06.916Z,14.63
2019-06-10T08:40:12.414Z,14.03
2019-06-10T08:43:16.832Z,13.63
2019-06-10T08:46:22.550Z,15.30
2019-06-10T08:49:27.222Z,14.07
2019-06-10T08:52:48.933Z,13.70
2019-06-10T08:55:37.713Z,13.83
2019-06-10T08:59:03.291Z,13.70
2019-06-10T09:02:08.137Z,13.70
2019-06-10T09:05:16.810Z,13.40
2019-06-10T09:08:23.411Z,13.77
2019-06-10T09:11:27.390Z,13.17
2019-06-10T09:14:32.610Z,14.60
2019-06-10T09:17:39.675Z,13.83
2019-06-10T09:20:45.943Z,14.07
2019-06-10T09:23:56.809Z,13.90
2019-06-10T09:26:55.638Z,13.07
2019-06-10T09:29:59.978Z,12.80
2019-06-10T09:33:04.920Z,12.23
2019-06-10T09:36:09.434Z,13.03
2019-06-10T09:39:13.717Z,12.73
2019-06-10T09:42:18.119Z,12.67
2019-06-10T09:45:22.482Z,12.23
2019-06-10T09:48:27.670Z,12.80
2019-06-10T09:51:32.540Z,12.23
2019-06-10T09:54:38.262Z,12.30
2019-06-10T09:57:47.202Z,12.63
2019-06-10T10:00:57.252Z,12.00
2019-06-10T10:04:00.262Z,11.33
2019-06-10T10:07:03.711Z,10.67
2019-06-10T10:10:09.179Z,11.07
2019-06-10T10:13:13.702Z,11.37
2019-06-10T10:16:18.151Z,10.67
2019-06-10T10:19:23.763Z,10.63
2019-06-10T10:22:28.061Z,10.27
2019-06-10T10:25:33.306Z,10.47
2019-06-10T10:28:37.933Z,10.43
2019-06-10T10:31:45.697Z,8.33
2019-06-10T10:34:50.254Z,9.33
2019-06-10T10:37:55.757Z,9.90
2019-06-10T10:41:00.301Z,9.87
2019-06-10T10:44:05.183Z,9.23
2019-06-10T10:47:09.546Z,9.53
2019-06-10T10:50:14.392Z,9.37
2019-06-10T10:53:19.081Z,8.77
2019-06-10T10:56:23.518Z,8.73
2019-06-10T10:59:27.878Z,8.67
2019-06-10T11:02:32.450Z,8.63
2019-06-10T11:05:37.462Z,8.80
2019-06-10T11:08:43.079Z,9.23
2019-06-10T11:11:52.241Z,9.03
2019-06-10T11:15:00.500Z,8.43
2019-06-10T11:18:03.827Z,8.27
2019-06-10T11:21:08.351Z,8.57
2019-06-10T11:24:14.476Z,9.43
2019-06-10T11:27:18.753Z,9.40
2019-06-10T11:30:23.413Z,9.13
2019-06-10T11:33:27.836Z,9.10
2019-06-10T11:36:32.740Z,8.20
2019-06-10T11:39:38.736Z,9.57
2019-06-10T11:42:43.674Z,8.67
2019-06-10T11:45:52.669Z,8.80
2019-06-10T11:48:57.183Z,9.47
2019-06-10T11:52:00.237Z,9.60
2019-06-10T11:55:15.275Z,8.83
2019-06-10T11:58:13.635Z,8.30
2019-06-10T12:01:22.660Z,9.40
2019-06-10T12:04:26.474Z,9.67
2019-06-10T12:07:33.214Z,10.17
2019-06-10T12:10:38.997Z,9.83
2019-06-10T12:13:43.371Z,9.53
2019-06-10T12:17:17.546Z,10.23
2019-06-10T12:19:56.764Z,10.20
2019-06-10T12:23:04.616Z,10.13
2019-06-10T12:26:09.059Z,10.60
2019-06-10T12:29:13.504Z,11.23
2019-06-10T12:32:22.393Z,10.03
2019-06-10T12:35:26.171Z,10.80
2019-06-10T12:38:33.416Z,10.57
2019-06-10T12:41:36.867Z,10.53
2019-06-10T12:44:42.868Z,10.60
2019-06-10T12:47:47.575Z,11.20
2019-06-10T12:50:53.842Z,10.27
2019-06-10T12:53:59.351Z,10.27
2019-06-10T12:57:05.285Z,10.87
2019-06-10T13:00:20.533Z,10.10
2019-06-10T13:03:18.163Z,9.87
2019-06-10T13:06:24.339Z,10.50
2019-06-10T13:09:29.895Z,9.20
2019-06-10T13:12:34.351Z,9.47
2019-06-10T13:15:39.232Z,9.30
2019-06-10T13:18:43.699Z,8.83
2019-06-10T13:21:48.148Z,8.97
2019-06-10T13:24:53.534Z,9.80
2019-06-10T13:28:02.949Z,9.27
2019-06-10T13:31:09.932Z,9.67
2019-06-10T13:34:15.282Z,9.40
2019-06-10T13:37:19.738Z,9.27
2019-06-10T13:40:24.556Z,9.20
2019-06-10T13:43:33.573Z,9.53
2019-06-10T13:46:36.264Z,9.60
2019-06-10T13:49:42.707Z,9.50
2019-06-10T13:52:46.900Z,8.93
2019-06-10T13:56:00.635Z,8.90
2019-06-10T13:58:57.532Z,8.77
2019-06-10T14:02:04.199Z,9.13
2019-06-10T14:05:12.955Z,8.30
2019-06-10T14:08:15.423Z,8.97
2019-06-10T14:11:22.072Z,8.10
2019-06-10T14:14:26.442Z,8.10
2019-06-10T14:17:32.874Z,7.67
2019-06-10T14:20:37.156Z,8.50
2019-06-10T14:23:42.368Z,7.57
2019-06-10T14:26:47.033Z,7.90
2019-06-10T14:29:52.889Z,8.13
2019-06-10T14:32:58.676Z,8.57
2019-06-10T14:36:04.069Z,7.97
2019-06-10T14:39:10.188Z,7.43
2019-06-10T14:42:16.315Z,7.77
2019-06-10T14:45:23.215Z,7.90
2019-06-10T14:48:27.754Z,8.03
2019-06-10T14:51:32.621Z,7.53
2019-06-10T14:54:37.258Z,7.07
2019-06-10T14:57:42.625Z,8.17
2019-06-10T15:00:47.196Z,7.70
2019-06-10T15:03:52.307Z,7.90
2019-06-10T15:06:56.873Z,8.30
2019-06-10T15:10:03.457Z,8.33
2019-06-10T15:13:07.675Z,7.47
2019-06-10T15:16:12.399Z,7.47
2019-06-10T15:19:25.271Z,8.63
2019-06-10T15:22:25.375Z,8.97
2019-06-10T15:25:43.765Z,8.73
2019-06-10T15:28:36.048Z,8.77
2019-06-10T15:31:42.855Z,8.93
2019-06-10T15:34:46.976Z,8.90
2019-06-10T15:37:52.775Z,8.47
2019-06-10T15:40:57.327Z,8.80
2019-06-10T15:44:02.553Z,8.60
2019-06-10T15:47:07.088Z,8.63
2019-06-10T15:50:13.193Z,8.50
2019-06-10T15:53:20.135Z,9.03
2019-06-10T15:56:37.272Z,9.20
2019-06-10T15:59:29.916Z,8.40
2019-06-10T16:02:34.371Z,8.80
2019-06-10T16:05:42.738Z,8.93
2019-06-10T16:08:47.234Z,8.80
2019-06-10T16:11:53.730Z,8.57
2019-06-10T16:14:57.926Z,8.77
2019-06-10T16:18:02.966Z,8.57
2019-06-10T16:21:07.629Z,8.57
2019-06-10T16:24:13.607Z,9.47
2019-06-10T16:27:18.287Z,9.23
2019-06-10T16:30:24.432Z,8.60
2019-06-10T16:33:28.956Z,9.53
2019-06-10T16:36:33.438Z,9.07
2019-06-10T16:39:37.854Z,9.17
2019-06-10T16:42:43.107Z,9.63
2019-06-10T16:45:47.644Z,9.73
2019-06-10T16:48:52.747Z,10.33
2019-06-10T16:51:57.330Z,9.13
2019-06-10T16:55:02.275Z,9.40
2019-06-10T16:58:08.433Z,9.90
2019-06-10T17:01:13.018Z,9.33
2019-06-10T17:04:17.434Z,9.57
2019-06-10T17:07:22.611Z,8.50
2019-06-10T17:10:28.236Z,8.80
2019-06-10T17:13:33.086Z,9.20
2019-06-10T17:16:40.562Z,10.10
2019-06-10T17:19:43.488Z,9.50
2019-06-10T17:22:47.973Z,9.87
2019-06-10T17:25:54.784Z,9.20
2019-06-10T17:28:59.279Z,8.90
2019-06-10T17:32:03.704Z,9.87
2019-06-10T17:35:10.476Z,9.20
2019-06-10T17:38:15.975Z,9.97
2019-06-10T17:41:21.339Z,9.07
2019-06-10T17:44:29.053Z,9.13
2019-06-10T17:47:34.722Z,9.27
2019-06-10T17:50:38.910Z,9.23
2019-06-10T17:53:43.352Z,9.27
2019-06-10T17:56:47.878Z,9.70
2019-06-10T17:59:52.505Z,9.30
2019-06-10T18:02:58.423Z,9.87
2019-06-10T18:06:03.001Z,9.67
2019-06-10T18:09:08.443Z,9.67
2019-06-10T18:12:13.029Z,9.23
2019-06-10T18:15:17.879Z,9.70
2019-06-10T18:18:22.545Z,10.90
2019-06-10T18:21:26.992Z,10.00
2019-06-10T18:24:32.856Z,10.27
2019-06-10T18:27:38.766Z,10.40
2019-06-10T18:30:43.595Z,10.13
2019-06-10T18:33:48.144Z,10.30
2019-06-10T18:36:52.717Z,10.50
2019-06-10T18:39:57.591Z,10.40
2019-06-10T18:43:02.905Z,10.37
2019-06-10T18:46:07.617Z,9.87
2019-06-10T18:49:13.279Z,10.00
2019-06-10T18:52:18.010Z,9.97
2019-06-10T18:55:22.907Z,10.57
2019-06-10T18:58:27.838Z,10.10
2019-06-10T19:01:34.366Z,10.70
2019-06-10T19:04:40.391Z,10.40
2019-06-10T19:07:46.854Z,10.33
2019-06-10T19:10:53.630Z,10.07
2019-06-10T19:14:00.059Z,9.70
2019-06-10T19:17:04.953Z,10.53
2019-06-10T19:20:09.954Z,9.67
2019-06-10T19:23:16.364Z,10.43
2019-06-10T19:26:22.105Z,10.13
2019-06-10T19:29:33.800Z,10.40
2019-06-10T19:32:34.049Z,10.43
2019-06-10T19:35:42.566Z,10.97
2019-06-10T19:38:49.098Z,10.37
2019-06-10T19:41:53.570Z,10.97
2019-06-10T19:44:57.988Z,10.10
2019-06-10T19:48:03.322Z,11.00
2019-06-10T19:51:08.014Z,10.53
2019-06-10T19:54:12.885Z,11.07
2019-06-10T19:57:17.377Z,10.47
2019-06-10T20:00:22.339Z,10.77
2019-06-10T20:03:26.737Z,11.27
2019-06-10T20:06:32.231Z,11.07
2019-06-10T20:09:38.034Z,11.53
2019-06-10T20:12:44.835Z,11.67
2019-06-10T20:15:48.540Z,11.40
2019-06-10T20:18:53.577Z,12.30
2019-06-10T20:21:58.268Z,11.63
2019-06-10T20:25:03.802Z,11.53
2019-06-10T20:28:08.486Z,13.17
2019-06-10T20:31:13.788Z,11.90
2019-06-10T20:34:23.851Z,12.73
2019-06-10T20:37:26.996Z,12.00
2019-06-10T20:40:32.150Z,12.23
2019-06-10T20:43:37.500Z,12.37
2019-06-10T20:46:43.457Z,11.97
2019-06-10T20:49:51.396Z,12.73
2019-06-10T20:52:54.004Z,13.00
2019-06-10T20:55:58.765Z,12.30
2019-06-10T20:59:03.350Z,11.90
2019-06-10T21:02:07.808Z,12.20
2019-06-10T21:05:13.395Z,12.67
2019-06-10T21:08:18.167Z,12.27
2019-06-10T21:11:23.154Z,12.00
2019-06-10T21:14:27.755Z,12.57
2019-06-10T21:17:33.288Z,12.40
2019-06-10T21:20:41.327Z,12.63
2019-06-10T21:23:47.545Z,12.67
2019-06-10T21:26:54.654Z,12.73
2019-06-10T21:29:58.153Z,11.70
2019-06-10T21:33:03.467Z,12.60
2019-06-10T21:36:08.213Z,13.43
2019-06-10T21:39:12.728Z,11.63
2019-06-10T21:42:17.092Z,12.63
2019-06-10T21:45:22.838Z,13.17
2019-06-10T21:48:27.378Z,12.33
2019-06-10T21:51:34.593Z,13.60
2019-06-10T21:54:38.874Z,13.97
2019-06-10T21:57:44.557Z,12.90
2019-06-10T22:01:03.257Z,13.47
2019-06-10T22:04:04.173Z,13.20
2019-06-10T22:07:07.815Z,13.60
2019-06-10T22:10:13.887Z,12.97
2019-06-10T22:13:18.928Z,12.37
2019-06-10T22:16:23.676Z,13.20
2019-06-10T22:19:28.697Z,13.87
2019-06-10T22:22:33.613Z,14.40
2019-06-10T22:25:38.601Z,13.17
2019-06-10T22:28:43.464Z,14.07
2019-06-10T22:31:49.251Z,13.40
2019-06-10T22:34:55.520Z,13.90
2019-06-10T22:38:02.555Z,14.07
2019-06-10T22:41:07.044Z,14.13
2019-06-10T22:44:12.746Z,13.40
2019-06-10T22:47:17.716Z,14.20
2019-06-10T22:50:22.960Z,13.80
2019-06-10T22:53:27.931Z,13.07
2019-06-10T22:56:32.778Z,13.90
2019-06-10T22:59:38.125Z,14.53
2019-06-10T23:02:43.873Z,13.67
2019-06-10T23:05:50.061Z,13.97
2019-06-10T23:08:56.585Z,14.77
2019-06-10T23:12:02.918Z,14.97
2019-06-10T23:15:07.923Z,14.83
2019-06-10T23:18:12.952Z,14.37
2019-06-10T23:21:18.984Z,14.80
2019-06-10T23:24:23.797Z,14.87
2019-06-10T23:27:28.626Z,14.80
2019-06-10T23:30:35.100Z,15.73
2019-06-10T23:33:42.564Z,14.67
2019-06-10T23:36:47.601Z,14.50
2019-06-10T23:39:54.712Z,14.00
2019-06-10T23:43:03.892Z,15.43
2019-06-10T23:46:08.787Z,14.17
2019-06-10T23:49:13.609Z,15.43
2019-06-10T23:52:18.369Z,15.33
2019-06-10T23:55:24.311Z,14.47
2019-06-10T23:58:28.887Z,15.67
